»·PEaware :: PSA472 KLAX-KSAN

PSA472 :: KLAX-KSAN

FLIGHT INFORMATION

Flight Status: Arrived
Operator:
Pacific Southwest Airlines
More flights by this operator :: More flights under this callsign
Pilot: Jone M. (10385)
Aircraft: BOEING 727-200
(B722)
More flights by this aircraft type
Origin: KLAX Los Angeles Intl
United States
Destination: KSAN San Diego Intl-Lindbergh
United States
More flights between these airports :: More routes between these airports
Route: +LAXX1 MZB
File this flight plan on PilotEdge
Remarks: TEC route LAXP11
Altitude:
(Current/Filed)
13,000ft
Speed:
(Current/Filed)
280kts
Departed: 22-Aug-19 01:57 PM
Arrived: 22-Aug-19 02:28 PM
Distance/Time
Traveled:
94nm/0:31
Distance/Time
To Go:
Arrived

Flight Plot

Page will automatically refresh every two minutes.


Map Options




Map Legend


Flown Route
Filed Route
Departure Airport
Arrival Airport
Navaid (VOR, NDB)
Fix

Horizontal Profiles

Position Reports

Time Latitude Longitude Heading Altitude Ground
Speed
22-Aug-19 13:36 33.942968 -118.393550 279 139ft 0kts
22-Aug-19 13:37 33.942968 -118.393550 279 139ft 0kts
22-Aug-19 13:38 33.942968 -118.393550 279 139ft 0kts
22-Aug-19 13:39 33.942968 -118.393550 279 139ft 0kts
22-Aug-19 13:40 33.942968 -118.393550 279 139ft 0kts
22-Aug-19 13:41 33.942968 -118.393550 279 139ft 0kts
22-Aug-19 13:42 33.942968 -118.393550 279 139ft 0kts
22-Aug-19 13:43 33.942968 -118.393550 279 139ft 0kts
22-Aug-19 13:44 33.942968 -118.393550 279 139ft 0kts
22-Aug-19 13:45 33.942968 -118.393550 279 139ft 0kts
22-Aug-19 13:46 33.942968 -118.393550 279 139ft 0kts
22-Aug-19 13:47 33.942968 -118.393550 279 139ft 0kts
22-Aug-19 13:48 33.942968 -118.393550 279 139ft 0kts
22-Aug-19 13:49 33.942833 -118.393007 286 139ft 6kts
22-Aug-19 13:50 33.941673 -118.393073 155 139ft 7kts
22-Aug-19 13:51 33.940529 -118.392301 171 139ft 0kts
22-Aug-19 13:52 33.939828 -118.389740 83 139ft 25kts
22-Aug-19 13:53 33.940775 -118.380562 83 139ft 9kts
22-Aug-19 13:54 33.940789 -118.380417 83 139ft 0kts
22-Aug-19 13:55 33.939878 -118.379996 228 139ft 4kts
22-Aug-19 13:56 33.936813 -118.414304 270 860ft 150kts
22-Aug-19 13:57 33.930749 -118.466200 259 2677ft 164kts
22-Aug-19 13:58 33.908243 -118.519133 233 3587ft 232kts
22-Aug-19 13:59 33.853313 -118.542040 172 6989ft 246kts
22-Aug-19 14:00 33.784023 -118.528000 172 10020ft 265kts
22-Aug-19 14:01 33.702339 -118.511674 172 11106ft 339kts
22-Aug-19 14:02 33.602196 -118.497589 174 11300ft 369kts
22-Aug-19 14:03 33.498479 -118.483096 172 11171ft 377kts
22-Aug-19 14:04 33.397381 -118.452361 143 11177ft 381kts
22-Aug-19 14:05 33.360501 -118.336612 100 11173ft 382kts
22-Aug-19 14:06 33.343356 -118.211049 99 11162ft 381kts
22-Aug-19 14:07 33.327244 -118.084985 98 11079ft 381kts
22-Aug-19 14:08 33.311337 -117.959842 98 11078ft 380kts
22-Aug-19 14:09 33.295300 -117.834421 99 11080ft 379kts
22-Aug-19 14:10 33.279310 -117.710339 99 11081ft 379kts
22-Aug-19 14:11 33.263164 -117.586034 99 11080ft 376kts
22-Aug-19 14:12 33.237520 -117.467220 130 11066ft 369kts
22-Aug-19 14:13 33.174671 -117.382361 144 11031ft 345kts
22-Aug-19 14:14 33.082008 -117.345558 163 11101ft 358kts
22-Aug-19 14:15 32.990840 -117.305542 157 11071ft 321kts
22-Aug-19 14:16 32.914379 -117.268433 169 10137ft 290kts
22-Aug-19 14:17 32.850318 -117.227845 110 7041ft 257kts
22-Aug-19 14:18 32.826809 -117.148004 111 7067ft 270kts
22-Aug-19 14:19 32.800258 -117.058325 111 5801ft 313kts
22-Aug-19 14:20 32.772324 -116.963322 110 4926ft 282kts
22-Aug-19 14:21 32.741147 -116.885325 156 4962ft 252kts
22-Aug-19 14:22 32.677825 -116.900901 226 4078ft 253kts
22-Aug-19 14:23 32.680082 -116.970036 289 3870ft 235kts
22-Aug-19 14:24 32.697794 -117.044720 281 3112ft 227kts
22-Aug-19 14:25 32.716220 -117.119243 283 1458ft 229kts
22-Aug-19 14:26 32.728833 -117.170019 281 319ft 136kts
22-Aug-19 14:27 32.735087 -117.198365 249 29ft 23kts
22-Aug-19 14:28 32.733060 -117.200050 234 29ft 7kts
22-Aug-19 14:29 32.733039 -117.200656 275 29ft 0kts

Navigation Log

Ident Type
Flight plan parsing failed, navigation log unavailable